sensor_id;sensor_type;location;lat;lon;timestamp;pressure;altitude;pressure_sealevel;temperature;humidity
48614;BME280;34408;51.426;5.444;2024-02-28T00:01:48;101978.28;;;7.57;62.98
48614;BME280;34408;51.426;5.444;2024-02-28T00:04:18;101973.94;;;7.56;63.40
48614;BME280;34408;51.426;5.444;2024-02-28T00:06:46;101967.75;;;7.55;62.58
48614;BME280;34408;51.426;5.444;2024-02-28T00:09:14;101962.75;;;7.52;62.97
48614;BME280;34408;51.426;5.444;2024-02-28T00:11:42;101976.78;;;7.54;62.99
48614;BME280;34408;51.426;5.444;2024-02-28T00:14:11;101984.81;;;7.54;62.92
48614;BME280;34408;51.426;5.444;2024-02-28T00:16:40;101975.78;;;7.55;63.16
48614;BME280;34408;51.426;5.444;2024-02-28T00:19:08;101973.28;;;7.54;63.09
48614;BME280;34408;51.426;5.444;2024-02-28T00:21:39;101973.44;;;7.52;63.06
48614;BME280;34408;51.426;5.444;2024-02-28T00:24:08;101974.09;;;7.54;62.52
48614;BME280;34408;51.426;5.444;2024-02-28T00:26:40;101961.75;;;7.53;62.46
48614;BME280;34408;51.426;5.444;2024-02-28T00:29:08;101964.09;;;7.48;62.65
48614;BME280;34408;51.426;5.444;2024-02-28T00:31:35;101970.94;;;7.50;63.15
48614;BME280;34408;51.426;5.444;2024-02-28T00:34:03;101957.56;;;7.50;62.61
48614;BME280;34408;51.426;5.444;2024-02-28T00:36:33;101956.75;;;7.50;63.11
48614;BME280;34408;51.426;5.444;2024-02-28T00:39:19;101954.06;;;7.50;62.39
48614;BME280;34408;51.426;5.444;2024-02-28T00:41:46;101950.72;;;7.48;62.86
48614;BME280;34408;51.426;5.444;2024-02-28T00:44:14;101956.25;;;7.46;62.62
48614;BME280;34408;51.426;5.444;2024-02-28T00:46:42;101957.09;;;7.47;63.14
48614;BME280;34408;51.426;5.444;2024-02-28T00:49:10;101949.59;;;7.42;62.38
48614;BME280;34408;51.426;5.444;2024-02-28T00:51:38;101954.09;;;7.42;63.11
48614;BME280;34408;51.426;5.444;2024-02-28T00:54:06;101955.94;;;7.41;63.40
48614;BME280;34408;51.426;5.444;2024-02-28T00:56:36;101954.28;;;7.40;63.20
48614;BME280;34408;51.426;5.444;2024-02-28T00:59:03;101958.13;;;7.38;62.57
48614;BME280;34408;51.426;5.444;2024-02-28T01:01:32;101953.31;;;7.33;63.17
48614;BME280;34408;51.426;5.444;2024-02-28T01:04:00;101947.59;;;7.36;63.06
48614;BME280;34408;51.426;5.444;2024-02-28T01:06:28;101950.63;;;7.33;63.57
48614;BME280;34408;51.426;5.444;2024-02-28T01:08:56;101939.94;;;7.33;63.30
48614;BME280;34408;51.426;5.444;2024-02-28T01:11:24;101940.94;;;7.32;63.89
48614;BME280;34408;51.426;5.444;2024-02-28T01:13:53;101955.31;;;7.31;63.80
48614;BME280;34408;51.426;5.444;2024-02-28T01:16:21;101956.31;;;7.30;63.59
48614;BME280;34408;51.426;5.444;2024-02-28T01:18:49;101955.50;;;7.30;62.83
48614;BME280;34408;51.426;5.444;2024-02-28T01:21:17;101951.16;;;7.29;63.67
48614;BME280;34408;51.426;5.444;2024-02-28T01:23:46;101954.66;;;7.29;62.98
48614;BME280;34408;51.426;5.444;2024-02-28T01:26:13;101959.16;;;7.29;63.32
48614;BME280;34408;51.426;5.444;2024-02-28T01:28:41;101958.50;;;7.27;63.01
48614;BME280;34408;51.426;5.444;2024-02-28T01:31:11;101960.34;;;7.26;62.58
48614;BME280;34408;51.426;5.444;2024-02-28T01:33:39;101953.34;;;7.25;62.80
48614;BME280;34408;51.426;5.444;2024-02-28T01:36:07;101956.19;;;7.24;63.50
48614;BME280;34408;51.426;5.444;2024-02-28T01:38:35;101959.03;;;7.22;63.77
48614;BME280;34408;51.426;5.444;2024-02-28T01:41:03;101953.84;;;7.21;62.65
48614;BME280;34408;51.426;5.444;2024-02-28T01:43:31;101958.38;;;7.20;63.61
48614;BME280;34408;51.426;5.444;2024-02-28T01:46:01;101956.03;;;7.17;62.99
48614;BME280;34408;51.426;5.444;2024-02-28T01:48:32;101960.38;;;7.18;63.47
48614;BME280;34408;51.426;5.444;2024-02-28T01:51:00;101966.72;;;7.17;63.30
48614;BME280;34408;51.426;5.444;2024-02-28T01:53:28;101970.41;;;7.16;62.83
48614;BME280;34408;51.426;5.444;2024-02-28T01:55:56;101962.56;;;7.14;63.45
48614;BME280;34408;51.426;5.444;2024-02-28T01:58:24;101966.25;;;7.13;63.31
48614;BME280;34408;51.426;5.444;2024-02-28T02:00:53;101967.25;;;7.12;63.43
48614;BME280;34408;51.426;5.444;2024-02-28T02:03:21;101964.56;;;7.12;63.04
48614;BME280;34408;51.426;5.444;2024-02-28T02:05:50;101964.75;;;7.11;63.54
48614;BME280;34408;51.426;5.444;2024-02-28T02:08:18;101961.91;;;7.12;63.39
48614;BME280;34408;51.426;5.444;2024-02-28T02:10:46;101962.25;;;7.09;62.54
48614;BME280;34408;51.426;5.444;2024-02-28T02:13:14;101971.94;;;7.10;62.82
48614;BME280;34408;51.426;5.444;2024-02-28T02:15:41;101975.13;;;7.06;62.91
48614;BME280;34408;51.426;5.444;2024-02-28T02:18:09;101981.28;;;7.06;63.19
48614;BME280;34408;51.426;5.444;2024-02-28T02:20:41;101975.78;;;7.08;62.77
48614;BME280;34408;51.426;5.444;2024-02-28T02:23:12;101983.13;;;7.06;63.08
48614;BME280;34408;51.426;5.444;2024-02-28T02:25:44;101978.97;;;7.03;62.87
48614;BME280;34408;51.426;5.444;2024-02-28T02:28:13;101978.97;;;7.03;62.96
48614;BME280;34408;51.426;5.444;2024-02-28T02:30:41;101979.97;;;7.02;62.34
48614;BME280;34408;51.426;5.444;2024-02-28T02:33:09;101970.28;;;7.01;62.35
48614;BME280;34408;51.426;5.444;2024-02-28T02:35:37;101974.78;;;7.01;62.26
48614;BME280;34408;51.426;5.444;2024-02-28T02:38:05;101973.28;;;6.98;62.00
48614;BME280;34408;51.426;5.444;2024-02-28T02:40:34;101976.13;;;6.97;62.43
48614;BME280;34408;51.426;5.444;2024-02-28T02:43:02;101977.13;;;6.96;62.35
48614;BME280;34408;51.426;5.444;2024-02-28T02:45:30;101980.66;;;6.96;61.98
48614;BME280;34408;51.426;5.444;2024-02-28T02:47:58;101971.97;;;6.94;62.70
48614;BME280;34408;51.426;5.444;2024-02-28T02:50:26;101981.03;;;6.93;62.20
48614;BME280;34408;51.426;5.444;2024-02-28T02:52:53;101988.38;;;6.91;62.88
48614;BME280;34408;51.426;5.444;2024-02-28T02:55:21;101987.72;;;6.89;62.74
48614;BME280;34408;51.426;5.444;2024-02-28T02:57:50;101984.19;;;6.89;62.27
48614;BME280;34408;51.426;5.444;2024-02-28T03:00:18;101980.88;;;6.87;62.16
48614;BME280;34408;51.426;5.444;2024-02-28T03:02:46;101972.00;;;6.86;62.39
48614;BME280;34408;51.426;5.444;2024-02-28T03:05:14;101985.53;;;6.84;62.32
48614;BME280;34408;51.426;5.444;2024-02-28T03:07:42;101987.22;;;6.85;62.77
48614;BME280;34408;51.426;5.444;2024-02-28T03:10:10;101982.03;;;6.84;62.12
48614;BME280;34408;51.426;5.444;2024-02-28T03:12:38;101984.88;;;6.82;62.04
48614;BME280;34408;51.426;5.444;2024-02-28T03:15:07;101987.72;;;6.81;62.53
48614;BME280;34408;51.426;5.444;2024-02-28T03:17:35;101984.22;;;6.80;62.50
48614;BME280;34408;51.426;5.444;2024-02-28T03:20:04;101987.06;;;6.79;62.68
48614;BME280;34408;51.426;5.444;2024-02-28T03:22:33;101987.22;;;6.77;62.29
48614;BME280;34408;51.426;5.444;2024-02-28T03:25:01;101997.91;;;6.77;62.04
48614;BME280;34408;51.426;5.444;2024-02-28T03:27:29;101993.56;;;6.76;62.38
48614;BME280;34408;51.426;5.444;2024-02-28T03:29:57;101997.25;;;6.75;62.28
48614;BME280;34408;51.426;5.444;2024-02-28T03:32:26;101996.41;;;6.75;62.41
48614;BME280;34408;51.426;5.444;2024-02-28T03:34:54;101983.38;;;6.72;62.68
48614;BME280;34408;51.426;5.444;2024-02-28T03:37:22;101990.41;;;6.73;62.19
48614;BME280;34408;51.426;5.444;2024-02-28T03:39:50;101978.38;;;6.69;61.79
48614;BME280;34408;51.426;5.444;2024-02-28T03:42:17;101982.72;;;6.70;62.27
48614;BME280;34408;51.426;5.444;2024-02-28T03:44:45;101981.06;;;6.69;62.63
48614;BME280;34408;51.426;5.444;2024-02-28T03:47:13;101983.72;;;6.69;62.83
48614;BME280;34408;51.426;5.444;2024-02-28T03:49:42;101980.38;;;6.67;62.27
48614;BME280;34408;51.426;5.444;2024-02-28T03:52:10;101975.22;;;6.65;62.38
48614;BME280;34408;51.426;5.444;2024-02-28T03:54:42;101976.22;;;6.64;62.15
48614;BME280;34408;51.426;5.444;2024-02-28T03:57:10;101977.38;;;6.62;62.34
48614;BME280;34408;51.426;5.444;2024-02-28T03:59:38;101983.56;;;6.62;62.82
48614;BME280;34408;51.426;5.444;2024-02-28T04:02:05;101984.41;;;6.63;62.39
48614;BME280;34408;51.426;5.444;2024-02-28T04:04:33;101980.22;;;6.60;62.79
48614;BME280;34408;51.426;5.444;2024-02-28T04:07:02;101982.72;;;6.62;62.04
48614;BME280;34408;51.426;5.444;2024-02-28T04:09:30;101975.88;;;6.59;62.72
48614;BME280;34408;51.426;5.444;2024-02-28T04:11:58;101983.06;;;6.59;62.28
48614;BME280;34408;51.426;5.444;2024-02-28T04:14:26;101977.88;;;6.57;62.87
48614;BME280;34408;51.426;5.444;2024-02-28T04:16:53;101986.91;;;6.56;62.29
48614;BME280;34408;51.426;5.444;2024-02-28T04:19:21;101981.56;;;6.56;61.76
48614;BME280;34408;51.426;5.444;2024-02-28T04:21:49;101997.75;;;6.55;62.80
48614;BME280;34408;51.426;5.444;2024-02-28T04:24:18;101995.25;;;6.53;62.27
48614;BME280;34408;51.426;5.444;2024-02-28T04:26:46;101987.41;;;6.51;62.69
48614;BME280;34408;51.426;5.444;2024-02-28T04:29:14;101987.41;;;6.51;61.93
48614;BME280;34408;51.426;5.444;2024-02-28T04:31:41;101995.41;;;6.51;62.03
48614;BME280;34408;51.426;5.444;2024-02-28T04:34:09;101987.25;;;6.53;62.50
48614;BME280;34408;51.426;5.444;2024-02-28T04:36:37;101980.41;;;6.50;62.05
48614;BME280;34408;51.426;5.444;2024-02-28T04:39:05;101982.22;;;6.50;62.75
48614;BME280;34408;51.426;5.444;2024-02-28T04:41:35;101984.06;;;6.49;62.41
48614;BME280;34408;51.426;5.444;2024-02-28T04:44:03;101982.22;;;6.50;62.29
48614;BME280;34408;51.426;5.444;2024-02-28T04:46:32;101990.41;;;6.48;62.62
48614;BME280;34408;51.426;5.444;2024-02-28T04:49:00;101980.72;;;6.47;62.17
48614;BME280;34408;51.426;5.444;2024-02-28T04:51:28;101990.56;;;6.47;62.10
48614;BME280;34408;51.426;5.444;2024-02-28T04:53:56;101989.75;;;6.46;62.11
48614;BME280;34408;51.426;5.444;2024-02-28T04:56:23;101987.41;;;6.43;61.96
48614;BME280;34408;51.426;5.444;2024-02-28T04:58:53;101997.09;;;6.44;61.78
48614;BME280;34408;51.426;5.444;2024-02-28T05:01:20;101997.25;;;6.43;62.11
48614;BME280;34408;51.426;5.444;2024-02-28T05:03:49;102000.75;;;6.43;62.24
48614;BME280;34408;51.426;5.444;2024-02-28T05:06:17;102003.59;;;6.42;62.38
48614;BME280;34408;51.426;5.444;2024-02-28T05:08:45;102003.59;;;6.42;62.28
48614;BME280;34408;51.426;5.444;2024-02-28T05:11:12;102012.59;;;6.41;62.02
48614;BME280;34408;51.426;5.444;2024-02-28T05:13:40;102015.44;;;6.39;62.22
48614;BME280;34408;51.426;5.444;2024-02-28T05:16:13;102016.44;;;6.38;61.96
48614;BME280;34408;51.426;5.444;2024-02-28T05:18:41;102023.13;;;6.34;62.40
48614;BME280;34408;51.426;5.444;2024-02-28T05:21:09;102025.63;;;6.36;62.71
48614;BME280;34408;51.426;5.444;2024-02-28T05:23:37;102022.28;;;6.34;62.27
48614;BME280;34408;51.426;5.444;2024-02-28T05:26:05;102029.44;;;6.33;62.57
48614;BME280;34408;51.426;5.444;2024-02-28T05:28:33;102026.94;;;6.32;62.17
48614;BME280;34408;51.426;5.444;2024-02-28T05:31:02;102031.44;;;6.31;62.43
48614;BME280;34408;51.426;5.444;2024-02-28T05:33:32;102026.59;;;6.27;62.47
48614;BME280;34408;51.426;5.444;2024-02-28T05:36:00;102033.44;;;6.29;62.53
48614;BME280;34408;51.426;5.444;2024-02-28T05:38:28;102042.28;;;6.30;62.52
48614;BME280;34408;51.426;5.444;2024-02-28T05:40:56;102044.28;;;6.28;62.34
48614;BME280;34408;51.426;5.444;2024-02-28T05:43:23;102040.78;;;6.27;62.38
48614;BME280;34408;51.426;5.444;2024-02-28T05:45:51;102039.13;;;6.26;62.58
48614;BME280;34408;51.426;5.444;2024-02-28T05:48:19;102040.94;;;6.26;61.92
48614;BME280;34408;51.426;5.444;2024-02-28T05:50:48;102041.78;;;6.26;62.32
48614;BME280;34408;51.426;5.444;2024-02-28T05:53:16;102039.28;;;6.25;62.13
48614;BME280;34408;51.426;5.444;2024-02-28T05:55:44;102042.78;;;6.25;62.45
48614;BME280;34408;51.426;5.444;2024-02-28T05:58:13;102037.63;;;6.24;62.45
48614;BME280;34408;51.426;5.444;2024-02-28T06:00:42;102036.78;;;6.23;62.16
48614;BME280;34408;51.426;5.444;2024-02-28T06:03:10;102035.94;;;6.23;62.01
48614;BME280;34408;51.426;5.444;2024-02-28T06:05:38;102047.47;;;6.23;62.38
48614;BME280;34408;51.426;5.444;2024-02-28T06:08:10;102041.28;;;6.23;62.33
48614;BME280;34408;51.426;5.444;2024-02-28T06:10:38;102044.94;;;6.22;62.02
48614;BME280;34408;51.426;5.444;2024-02-28T06:13:06;102045.13;;;6.20;62.14
48614;BME280;34408;51.426;5.444;2024-02-28T06:15:34;102042.44;;;6.20;62.56
48614;BME280;34408;51.426;5.444;2024-02-28T06:18:02;102045.13;;;6.20;62.84
48614;BME280;34408;51.426;5.444;2024-02-28T06:20:30;102046.13;;;6.19;62.47
48614;BME280;34408;51.426;5.444;2024-02-28T06:22:57;102040.78;;;6.19;62.41
48614;BME280;34408;51.426;5.444;2024-02-28T06:25:34;102053.13;;;6.20;62.72
48614;BME280;34408;51.426;5.444;2024-02-28T06:28:02;102055.94;;;6.18;62.73
48614;BME280;34408;51.426;5.444;2024-02-28T06:30:33;102050.78;;;6.17;62.70
48614;BME280;34408;51.426;5.444;2024-02-28T06:33:01;102056.94;;;6.17;62.48
48614;BME280;34408;51.426;5.444;2024-02-28T06:35:31;102050.63;;;6.18;62.54
48614;BME280;34408;51.426;5.444;2024-02-28T06:37:58;102055.94;;;6.18;62.39
48614;BME280;34408;51.426;5.444;2024-02-28T06:40:26;102060.47;;;6.18;62.44
48614;BME280;34408;51.426;5.444;2024-02-28T06:43:00;102056.94;;;6.17;62.39
48614;BME280;34408;51.426;5.444;2024-02-28T06:45:28;102071.13;;;6.18;62.55
48614;BME280;34408;51.426;5.444;2024-02-28T06:47:56;102066.97;;;6.15;62.49
48614;BME280;34408;51.426;5.444;2024-02-28T06:50:24;102083.47;;;6.19;63.06
48614;BME280;34408;51.426;5.444;2024-02-28T06:52:52;102080.81;;;6.19;62.48
48614;BME280;34408;51.426;5.444;2024-02-28T06:55:20;102076.47;;;6.18;62.62
48614;BME280;34408;51.426;5.444;2024-02-28T06:57:48;102079.97;;;6.18;62.49
48614;BME280;34408;51.426;5.444;2024-02-28T07:00:18;102078.31;;;6.17;62.48
48614;BME280;34408;51.426;5.444;2024-02-28T07:02:46;102083.81;;;6.16;62.64
48614;BME280;34408;51.426;5.444;2024-02-28T07:05:14;102093.66;;;6.15;63.18
48614;BME280;34408;51.426;5.444;2024-02-28T07:07:42;102098.16;;;6.15;62.91
48614;BME280;34408;51.426;5.444;2024-02-28T07:10:10;102108.81;;;6.15;62.64
48614;BME280;34408;51.426;5.444;2024-02-28T07:12:38;102103.50;;;6.15;63.13
48614;BME280;34408;51.426;5.444;2024-02-28T07:15:06;102103.97;;;6.10;63.04
48614;BME280;34408;51.426;5.444;2024-02-28T07:17:36;102106.13;;;6.07;62.95
48614;BME280;34408;51.426;5.444;2024-02-28T07:20:04;102113.13;;;6.08;63.14
48614;BME280;34408;51.426;5.444;2024-02-28T07:22:33;102122.81;;;6.09;63.21
48614;BME280;34408;51.426;5.444;2024-02-28T07:25:01;102124.66;;;6.08;63.11
48614;BME280;34408;51.426;5.444;2024-02-28T07:27:29;102126.16;;;6.11;63.14
48614;BME280;34408;51.426;5.444;2024-02-28T07:29:57;102118.16;;;6.11;63.64
48614;BME280;34408;51.426;5.444;2024-02-28T07:32:25;102113.81;;;6.10;63.54
48614;BME280;34408;51.426;5.444;2024-02-28T07:34:54;102118.31;;;6.09;63.33
48614;BME280;34408;51.426;5.444;2024-02-28T07:37:22;102119.97;;;6.10;63.51
48614;BME280;34408;51.426;5.444;2024-02-28T07:39:49;102118.47;;;6.08;63.56
48614;BME280;34408;51.426;5.444;2024-02-28T07:42:20;102130.66;;;6.10;63.36
48614;BME280;34408;51.426;5.444;2024-02-28T07:44:50;102122.50;;;6.12;63.69
48614;BME280;34408;51.426;5.444;2024-02-28T07:47:23;102119.16;;;6.10;63.56
48614;BME280;34408;51.426;5.444;2024-02-28T07:49:51;102128.00;;;6.10;63.49
48614;BME280;34408;51.426;5.444;2024-02-28T07:52:21;102135.84;;;6.12;63.80
48614;BME280;34408;51.426;5.444;2024-02-28T07:54:49;102133.34;;;6.10;63.46
48614;BME280;34408;51.426;5.444;2024-02-28T07:57:17;102131.81;;;6.08;63.33
48614;BME280;34408;51.426;5.444;2024-02-28T07:59:45;102130.66;;;6.10;63.77
48614;BME280;34408;51.426;5.444;2024-02-28T08:02:13;102135.00;;;6.11;63.29
48614;BME280;34408;51.426;5.444;2024-02-28T08:04:41;102146.34;;;6.13;63.67
48614;BME280;34408;51.426;5.444;2024-02-28T08:07:09;102142.69;;;6.14;63.83
48614;BME280;34408;51.426;5.444;2024-02-28T08:09:39;102149.84;;;6.14;64.04
48614;BME280;34408;51.426;5.444;2024-02-28T08:12:07;102149.84;;;6.14;63.63
48614;BME280;34408;51.426;5.444;2024-02-28T08:14:35;102154.38;;;6.13;63.78
48614;BME280;34408;51.426;5.444;2024-02-28T08:17:02;102154.38;;;6.13;64.27
48614;BME280;34408;51.426;5.444;2024-02-28T08:19:30;102156.88;;;6.15;64.13
48614;BME280;34408;51.426;5.444;2024-02-28T08:21:58;102153.38;;;6.14;64.26
48614;BME280;34408;51.426;5.444;2024-02-28T08:24:27;102170.22;;;6.15;63.82
48614;BME280;34408;51.426;5.444;2024-02-28T08:26:56;102170.88;;;6.17;64.38
48614;BME280;34408;51.426;5.444;2024-02-28T08:29:24;102172.03;;;6.14;64.38
48614;BME280;34408;51.426;5.444;2024-02-28T08:31:53;102169.53;;;6.13;64.59
48614;BME280;34408;51.426;5.444;2024-02-28T08:34:21;102173.56;;;6.17;64.38
48614;BME280;34408;51.426;5.444;2024-02-28T08:36:49;102180.56;;;6.18;64.53
48614;BME280;34408;51.426;5.444;2024-02-28T08:39:18;102176.22;;;6.17;64.01
48614;BME280;34408;51.426;5.444;2024-02-28T08:41:46;102182.41;;;6.17;64.28
48614;BME280;34408;51.426;5.444;2024-02-28T08:44:15;102187.75;;;6.17;64.13
48614;BME280;34408;51.426;5.444;2024-02-28T08:46:46;102192.09;;;6.18;64.25
48614;BME280;34408;51.426;5.444;2024-02-28T08:49:14;102191.25;;;6.18;64.43
48614;BME280;34408;51.426;5.444;2024-02-28T08:51:42;102184.06;;;6.18;64.80
48614;BME280;34408;51.426;5.444;2024-02-28T08:54:12;102182.25;;;6.19;64.45
48614;BME280;34408;51.426;5.444;2024-02-28T08:56:39;102177.59;;;6.21;64.37
48614;BME280;34408;51.426;5.444;2024-02-28T08:59:20;102174.91;;;6.21;64.75
48614;BME280;34408;51.426;5.444;2024-02-28T09:01:48;102188.78;;;6.25;64.67
48614;BME280;34408;51.426;5.444;2024-02-28T09:04:16;102182.47;;;6.34;64.58
48614;BME280;34408;51.426;5.444;2024-02-28T09:06:44;102188.19;;;6.47;64.10
48614;BME280;34408;51.426;5.444;2024-02-28T09:09:12;102184.72;;;6.63;63.64
48614;BME280;34408;51.426;5.444;2024-02-28T09:11:40;102182.09;;;6.79;63.95
48614;BME280;34408;51.426;5.444;2024-02-28T09:14:08;102174.44;;;6.92;63.45
48614;BME280;34408;51.426;5.444;2024-02-28T09:16:37;102180.59;;;7.09;62.06
48614;BME280;34408;51.426;5.444;2024-02-28T09:19:05;102180.78;;;7.15;62.25
48614;BME280;34408;51.426;5.444;2024-02-28T09:21:33;102179.94;;;7.31;61.53
48614;BME280;34408;51.426;5.444;2024-02-28T09:24:01;102172.56;;;7.49;62.28
48614;BME280;34408;51.426;5.444;2024-02-28T09:26:28;102173.88;;;7.62;61.54
48614;BME280;34408;51.426;5.444;2024-02-28T09:28:56;102172.88;;;7.71;61.34
48614;BME280;34408;51.426;5.444;2024-02-28T09:31:24;102164.31;;;7.83;60.77
48614;BME280;34408;51.426;5.444;2024-02-28T09:33:53;102166.78;;;7.93;61.34
48614;BME280;34408;51.426;5.444;2024-02-28T09:36:23;102163.44;;;7.99;60.46
48614;BME280;34408;51.426;5.444;2024-02-28T09:38:51;102166.25;;;8.06;60.73
48614;BME280;34408;51.426;5.444;2024-02-28T09:41:19;102165.72;;;8.10;60.94
48614;BME280;34408;51.426;5.444;2024-02-28T09:43:48;102159.19;;;8.13;60.27
48614;BME280;34408;51.426;5.444;2024-02-28T09:46:16;102158.66;;;8.18;60.47
48614;BME280;34408;51.426;5.444;2024-02-28T09:48:46;102162.00;;;8.20;60.25
48614;BME280;34408;51.426;5.444;2024-02-28T09:51:18;102162.00;;;8.20;61.11
48614;BME280;34408;51.426;5.444;2024-02-28T09:53:50;102162.31;;;8.25;60.92
48614;BME280;34408;51.426;5.444;2024-02-28T09:56:19;102163.66;;;8.29;61.15
48614;BME280;34408;51.426;5.444;2024-02-28T09:58:47;102166.97;;;8.31;61.04
48614;BME280;34408;51.426;5.444;2024-02-28T10:01:15;102159.47;;;8.34;60.81
48614;BME280;34408;51.426;5.444;2024-02-28T10:03:45;102157.28;;;8.38;60.88
48614;BME280;34408;51.426;5.444;2024-02-28T10:06:13;102170.13;;;8.42;61.14
48614;BME280;34408;51.426;5.444;2024-02-28T10:08:43;102167.28;;;8.44;60.57
48614;BME280;34408;51.426;5.444;2024-02-28T10:11:17;102168.78;;;8.46;60.88
48614;BME280;34408;51.426;5.444;2024-02-28T10:13:45;102168.25;;;8.51;60.48
48614;BME280;34408;51.426;5.444;2024-02-28T10:16:13;102161.34;;;8.57;60.97
48614;BME280;34408;51.426;5.444;2024-02-28T10:18:42;102171.72;;;8.60;61.37
48614;BME280;34408;51.426;5.444;2024-02-28T10:21:10;102165.94;;;8.48;61.63
48614;BME280;34408;51.426;5.444;2024-02-28T10:23:39;102170.19;;;8.34;62.25
48614;BME280;34408;51.426;5.444;2024-02-28T10:26:10;102170.03;;;8.20;62.62
48614;BME280;34408;51.426;5.444;2024-02-28T10:28:38;102167.56;;;8.10;62.70
48614;BME280;34408;51.426;5.444;2024-02-28T10:31:07;102169.97;;;7.97;63.27
48614;BME280;34408;51.426;5.444;2024-02-28T10:33:35;102176.00;;;7.91;63.60
48614;BME280;34408;51.426;5.444;2024-02-28T10:36:04;102172.34;;;7.83;64.48
48614;BME280;34408;51.426;5.444;2024-02-28T10:38:32;102172.84;;;7.79;64.60
48614;BME280;34408;51.426;5.444;2024-02-28T10:41:00;102173.38;;;7.74;64.80
48614;BME280;34408;51.426;5.444;2024-02-28T10:43:30;102173.72;;;7.71;64.50
48614;BME280;34408;51.426;5.444;2024-02-28T10:46:01;102165.34;;;7.66;65.02
48614;BME280;34408;51.426;5.444;2024-02-28T10:48:32;102167.38;;;7.64;65.13
48614;BME280;34408;51.426;5.444;2024-02-28T10:51:03;102162.19;;;7.63;65.36
48614;BME280;34408;51.426;5.444;2024-02-28T10:53:36;102156.00;;;7.62;65.18
48614;BME280;34408;51.426;5.444;2024-02-28T10:56:06;102152.78;;;7.75;65.73
48614;BME280;34408;51.426;5.444;2024-02-28T10:58:42;102151.41;;;7.87;65.09
48614;BME280;34408;51.426;5.444;2024-02-28T11:01:16;102155.72;;;8.04;64.37
48614;BME280;34408;51.426;5.444;2024-02-28T11:03:46;102146.13;;;8.18;64.01
48614;BME280;34408;51.426;5.444;2024-02-28T11:06:18;102147.75;;;8.35;63.72
48614;BME280;34408;51.426;5.444;2024-02-28T11:08:48;102144.31;;;8.50;63.40
48614;BME280;34408;51.426;5.444;2024-02-28T11:11:20;102140.22;;;8.62;63.34
48614;BME280;34408;51.426;5.444;2024-02-28T11:13:53;102144.78;;;8.76;62.62
48614;BME280;34408;51.426;5.444;2024-02-28T11:16:27;102140.31;;;8.91;61.85
48614;BME280;34408;51.426;5.444;2024-02-28T11:18:56;102138.22;;;9.01;62.41
48614;BME280;34408;51.426;5.444;2024-02-28T11:21:24;102131.69;;;9.04;61.77
48614;BME280;34408;51.426;5.444;2024-02-28T11:23:57;102137.75;;;8.98;62.43
48614;BME280;34408;51.426;5.444;2024-02-28T11:26:26;102122.88;;;8.72;63.29
48614;BME280;34408;51.426;5.444;2024-02-28T11:28:56;102148.53;;;8.67;63.96
48614;BME280;34408;51.426;5.444;2024-02-28T11:31:24;102150.34;;;8.52;64.45
48614;BME280;34408;51.426;5.444;2024-02-28T11:33:51;102141.69;;;8.41;64.63
48614;BME280;34408;51.426;5.444;2024-02-28T11:36:19;102145.91;;;8.36;64.63
48614;BME280;34408;51.426;5.444;2024-02-28T11:38:48;102144.53;;;8.32;65.22
48614;BME280;34408;51.426;5.444;2024-02-28T11:41:25;102140.25;;;8.23;65.35
48614;BME280;34408;51.426;5.444;2024-02-28T11:43:55;102135.88;;;8.22;65.29
48614;BME280;34408;51.426;5.444;2024-02-28T11:46:23;102134.41;;;8.19;65.54
48614;BME280;34408;51.426;5.444;2024-02-28T11:48:52;102121.19;;;8.18;65.99
48614;BME280;34408;51.426;5.444;2024-02-28T11:51:22;102123.38;;;8.14;66.15
48614;BME280;34408;51.426;5.444;2024-02-28T11:53:50;102128.56;;;8.15;65.63
48614;BME280;34408;51.426;5.444;2024-02-28T11:56:18;102124.38;;;8.13;66.27
48614;BME280;34408;51.426;5.444;2024-02-28T11:58:51;102119.56;;;8.08;65.49
48614;BME280;34408;51.426;5.444;2024-02-28T12:01:34;102115.34;;;8.14;65.88
48614;BME280;34408;51.426;5.444;2024-02-28T12:04:03;102106.47;;;8.13;66.54
48614;BME280;34408;51.426;5.444;2024-02-28T12:06:32;102101.94;;;8.14;66.78
48614;BME280;34408;51.426;5.444;2024-02-28T12:09:01;102115.66;;;8.19;67.18
48614;BME280;34408;51.426;5.444;2024-02-28T12:11:29;102111.97;;;8.20;66.94
48614;BME280;34408;51.426;5.444;2024-02-28T12:13:57;102106.59;;;8.20;66.50
48614;BME280;34408;51.426;5.444;2024-02-28T12:16:27;102104.41;;;8.24;67.62
48614;BME280;34408;51.426;5.444;2024-02-28T12:18:55;102109.94;;;8.22;66.73
48614;BME280;34408;51.426;5.444;2024-02-28T12:21:23;102104.94;;;8.19;67.47
48614;BME280;34408;51.426;5.444;2024-02-28T12:23:50;102101.78;;;8.15;67.36
48614;BME280;34408;51.426;5.444;2024-02-28T12:26:18;102099.75;;;8.18;67.21
48614;BME280;34408;51.426;5.444;2024-02-28T12:28:46;102097.25;;;8.16;67.72
48614;BME280;34408;51.426;5.444;2024-02-28T12:31:14;102091.91;;;8.16;67.32
48614;BME280;34408;51.426;5.444;2024-02-28T12:33:43;102095.41;;;8.16;67.62
48614;BME280;34408;51.426;5.444;2024-02-28T12:36:11;102084.31;;;8.28;67.43
48614;BME280;34408;51.426;5.444;2024-02-28T12:38:40;102086.63;;;8.39;67.35
48614;BME280;34408;51.426;5.444;2024-02-28T12:41:08;102069.19;;;8.43;66.67
48614;BME280;34408;51.426;5.444;2024-02-28T12:43:36;102083.03;;;8.69;66.43
48614;BME280;34408;51.426;5.444;2024-02-28T12:46:04;102082.91;;;8.86;65.43
48614;BME280;34408;51.426;5.444;2024-02-28T12:48:37;102078.59;;;8.99;65.39
48614;BME280;34408;51.426;5.444;2024-02-28T12:51:08;102069.09;;;9.11;64.37
48614;BME280;34408;51.426;5.444;2024-02-28T12:53:38;102083.44;;;9.19;64.69
48614;BME280;34408;51.426;5.444;2024-02-28T12:56:06;102086.59;;;9.22;64.45
48614;BME280;34408;51.426;5.444;2024-02-28T12:58:33;102081.13;;;9.16;65.14
48614;BME280;34408;51.426;5.444;2024-02-28T13:01:01;102082.88;;;9.08;64.92
48614;BME280;34408;51.426;5.444;2024-02-28T13:03:29;102083.25;;;9.20;66.29
48614;BME280;34408;51.426;5.444;2024-02-28T13:05:57;102088.34;;;9.15;65.03
48614;BME280;34408;51.426;5.444;2024-02-28T13:08:26;102076.38;;;9.03;65.94